Time;durP1;ratioP1;P1;durP2;ratioP2;P2;SDS_P1;SDS_P2;PMS_P1;PMS_P2;Temp;Humidity;BMP_temperature;BMP_pressure;BME280_temperature;BME280_humidity;BME280_pressure;Samples;Min_cycle;Max_cycle;Signal;HPM_P1;HPM_P2
2023/03/16 00:02:09;;;;;;;3.97;1.77;;;-0.60;99.90;;;;;;5038069;28;20222;-78
2023/03/16 00:04:36;;;;;;;2.87;1.53;;;-0.30;99.90;;;;;;5036916;28;20342;-79
2023/03/16 00:07:03;;;;;;;5.80;1.87;;;-0.20;99.90;;;;;;5049572;28;20209;-78
2023/03/16 00:09:29;;;;;;;5.27;1.70;;;0.00;99.90;;;;;;5033637;28;20641;-79
2023/03/16 00:12:01;;;;;;;5.13;1.80;;;0.10;99.90;;;;;;5036808;28;20685;-79
2023/03/16 00:14:28;;;;;;;3.67;1.70;;;-0.10;27.90;;;;;;5037367;28;20186;-79
2023/03/16 00:16:53;;;;;;;3.30;1.53;;;0.00;99.90;;;;;;5038510;28;20202;-79
2023/03/16 00:19:21;;;;;;;5.73;1.70;;;0.20;99.90;;;;;;5038954;28;20227;-79
2023/03/16 00:21:48;;;;;;;3.33;1.87;;;0.10;93.50;;;;;;5038397;28;20225;-79
2023/03/16 00:24:17;;;;;;;4.93;1.77;;;-0.10;37.40;;;;;;5036209;28;20229;-79
2023/03/16 00:26:46;;;;;;;3.97;1.90;;;0.00;99.90;;;;;;5035687;28;20301;-79
2023/03/16 00:29:12;;;;;;;4.43;1.97;;;0.00;64.00;;;;;;5052350;28;20253;-80
2023/03/16 00:31:39;;;;;;;5.00;2.00;;;0.10;94.10;;;;;;5035266;28;20328;-79
2023/03/16 00:34:04;;;;;;;4.27;2.50;;;0.20;61.50;;;;;;5038519;28;20206;-78
2023/03/16 00:36:32;;;;;;;4.03;1.63;;;0.20;70.60;;;;;;5038293;28;20225;-79
2023/03/16 00:38:58;;;;;;;4.97;2.47;;;0.00;29.80;;;;;;5043958;28;20191;-78
2023/03/16 00:41:24;;;;;;;5.13;1.87;;;0.00;29.90;;;;;;5040134;28;20198;-78
2023/03/16 00:43:50;;;;;;;3.60;2.10;;;-0.20;9.80;;;;;;5043694;28;20182;-78
2023/03/16 00:46:16;;;;;;;2.90;1.90;;;-0.30;20.10;;;;;;5057521;28;20214;-80
2023/03/16 00:48:45;;;;;;;3.67;1.70;;;-0.30;41.90;;;;;;5041905;28;20201;-79
2023/03/16 00:51:14;;;;;;;5.60;1.93;;;-0.30;44.00;;;;;;5047424;28;20720;-80
2023/03/16 00:53:42;;;;;;;5.13;2.10;;;-0.50;27.80;;;;;;5038589;28;20182;-80
2023/03/16 00:56:09;;;;;;;5.20;2.17;;;-0.60;19.80;;;;;;5044508;28;20209;-80
2023/03/16 00:58:37;;;;;;;3.77;2.00;;;-0.50;73.70;;;;;;5037398;28;20556;-80
2023/03/16 01:01:12;;;;;;;3.83;2.47;;;-0.40;57.60;;;;;;5034884;28;20201;-81
2023/03/16 01:03:38;;;;;;;3.23;2.07;;;-0.30;47.00;;;;;;5037793;28;20653;-80
2023/03/16 01:06:09;;;;;;;4.17;1.77;;;-0.30;40.00;;;;;;5051253;28;20213;-80
2023/03/16 01:08:38;;;;;;;5.00;2.13;;;-0.40;24.80;;;;;;5035960;28;20618;-80
2023/03/16 01:11:09;;;;;;;3.40;1.53;;;-0.40;50.30;;;;;;5035486;28;20297;-80
2023/03/16 01:13:35;;;;;;;3.57;1.70;;;-0.30;61.30;;;;;;5035487;28;20914;-81
2023/03/16 01:16:01;;;;;;;2.13;1.60;;;-0.40;6.70;;;;;;5040312;28;20222;-80
2023/03/16 01:18:27;;;;;;;4.23;1.80;;;-0.40;39.20;;;;;;5044233;28;20178;-80
2023/03/16 01:20:53;;;;;;;2.90;1.70;;;-0.40;41.40;;;;;;5047957;28;20198;-80
2023/03/16 01:23:20;;;;;;;3.23;1.70;;;-0.70;4.30;;;;;;5043549;28;20201;-81
2023/03/16 01:25:51;;;;;;;6.40;1.60;;;-0.70;45.10;;;;;;5056276;28;20210;-80
2023/03/16 01:28:23;;;;;;;3.83;1.77;;;-0.40;93.90;;;;;;5040567;28;20171;-80
2023/03/16 01:30:56;;;;;;;2.87;1.50;;;-0.40;60.60;;;;;;5039509;28;20198;-80
2023/03/16 01:33:24;;;;;;;3.80;1.53;;;-0.50;32.50;;;;;;5040472;28;20244;-80
2023/03/16 01:35:58;;;;;;;3.83;1.50;;;-0.50;36.10;;;;;;5037631;28;20305;-80
2023/03/16 01:38:24;;;;;;;3.87;1.50;;;-0.30;68.20;;;;;;5047101;28;20259;-80
2023/03/16 01:40:52;;;;;;;6.40;2.20;;;-0.10;57.50;;;;;;5056586;28;20205;-80
2023/03/16 01:43:24;;;;;;;3.30;1.80;;;-0.10;26.90;;;;;;5046039;28;20186;-79
2023/03/16 01:46:05;;;;;;;5.27;1.70;;;0.00;27.30;;;;;;5045400;28;20213;-80
2023/03/16 01:48:36;;;;;;;4.17;1.90;;;-0.10;1.50;;;;;;5037966;28;20193;-80
2023/03/16 01:51:06;;;;;;;2.37;1.17;;;-0.30;1.00;;;;;;5038253;28;20265;-80
2023/03/16 01:53:33;;;;;;;2.13;1.30;;;-0.30;3.70;;;;;;5036450;28;20182;-80
2023/03/16 01:56:02;;;;;;;3.03;1.60;;;0.00;21.40;;;;;;5057032;28;20206;-80
2023/03/16 01:58:29;;;;;;;6.03;1.67;;;0.00;16.00;;;;;;5040544;28;20193;-80
2023/03/16 02:00:57;;;;;;;4.73;1.73;;;-0.20;1.00;;;;;;5038839;28;20272;-79
2023/03/16 02:03:24;;;;;;;3.67;1.70;;;0.10;20.90;;;;;;5042645;28;20642;-81
2023/03/16 02:06:05;;;;;;;7.17;1.73;;;0.00;20.90;;;;;;5041528;28;21242;-81
2023/03/16 02:08:32;;;;;;;3.30;2.40;;;0.00;18.00;;;;;;5052481;28;20186;-81
2023/03/16 02:10:58;;;;;;;4.93;1.87;;;0.00;6.80;;;;;;5043778;28;20241;-81
2023/03/16 02:13:28;;;;;;;2.90;1.60;;;0.00;2.10;;;;;;5080816;23;20227;-80
2023/03/16 02:15:54;;;;;;;2.20;1.67;;;0.00;7.40;;;;;;5030186;28;20211;-80
2023/03/16 02:18:21;;;;;;;3.87;1.37;;;0.10;8.00;;;;;;5012000;28;20490;-79
2023/03/16 02:21:11;;;;;;;5.20;1.53;;;0.00;1.90;;;;;;5024936;28;20207;-79
2023/03/16 02:23:37;;;;;;;3.37;1.70;;;-0.10;1.00;;;;;;5035324;28;20216;-79
2023/03/16 02:26:17;;;;;;;2.60;1.60;;;-0.20;1.00;;;;;;5007476;28;20184;-79
2023/03/16 02:28:55;;;;;;;2.83;1.50;;;-0.20;2.80;;;;;;4996147;28;20192;-79
2023/03/16 02:31:21;;;;;;;4.27;1.83;;;-0.10;8.50;;;;;;4998312;28;20590;-79
2023/03/16 02:33:49;;;;;;;3.83;1.73;;;0.00;9.60;;;;;;4993656;28;20220;-79
2023/03/16 02:36:18;;;;;;;2.67;1.60;;;0.00;8.20;;;;;;4995531;28;20181;-80
2023/03/16 02:38:45;;;;;;;2.50;1.53;;;-0.10;1.00;;;;;;4997541;28;20190;-79
2023/03/16 02:41:19;;;;;;;3.60;1.73;;;-0.10;1.00;;;;;;4998727;28;20684;-79
2023/03/16 02:44:26;;;;;;;3.40;1.80;;;0.00;1.00;;;;;;4997000;28;20638;-79
2023/03/16 02:46:54;;;;;;;3.00;1.33;;;-0.30;1.00;;;;;;4997702;28;20218;-79
2023/03/16 02:49:35;;;;;;;5.67;1.53;;;-0.40;1.00;;;;;;4996810;28;20207;-79
2023/03/16 02:52:02;;;;;;;4.60;2.00;;;-0.10;1.00;;;;;;4996299;28;20211;-80
2023/03/16 02:54:27;;;;;;;3.23;1.63;;;-0.30;1.00;;;;;;4996916;28;20218;-80
2023/03/16 02:56:53;;;;;;;3.87;1.57;;;-0.30;1.00;;;;;;4995107;28;20572;-81
2023/03/16 02:59:18;;;;;;;4.57;2.30;;;-0.20;1.00;;;;;;4997142;28;20211;-80
2023/03/16 03:01:44;;;;;;;4.90;1.77;;;-0.20;1.00;;;;;;4996379;28;20192;-80
2023/03/16 03:04:10;;;;;;;4.73;1.60;;;-0.30;1.00;;;;;;5012770;28;20242;-80
2023/03/16 03:06:35;;;;;;;4.87;1.80;;;-0.30;1.00;;;;;;4996235;28;20407;-80
2023/03/16 03:09:02;;;;;;;4.40;1.53;;;-0.40;1.00;;;;;;5030273;28;20223;-81
2023/03/16 03:11:28;;;;;;;4.50;1.80;;;-0.50;1.00;;;;;;4996703;28;20207;-80
2023/03/16 03:13:54;;;;;;;4.50;1.47;;;-0.60;1.00;;;;;;4995147;28;20212;-80
2023/03/16 03:16:20;;;;;;;4.43;2.23;;;-0.60;1.00;;;;;;4994794;28;20266;-79
2023/03/16 03:18:46;;;;;;;4.60;1.50;;;-0.50;1.00;;;;;;4996750;28;20263;-79
2023/03/16 03:21:12;;;;;;;4.83;1.80;;;-0.50;1.00;;;;;;4994667;28;20184;-79
2023/03/16 03:23:37;;;;;;;3.47;1.40;;;-0.60;1.00;;;;;;4995891;28;20211;-80
2023/03/16 03:26:03;;;;;;;3.27;1.60;;;-0.60;1.00;;;;;;4997417;28;20188;-80
2023/03/16 03:28:29;;;;;;;4.57;1.90;;;-0.10;1.00;;;;;;4995725;28;20739;-79
2023/03/16 03:30:55;;;;;;;6.10;1.60;;;-0.70;1.00;;;;;;5011639;28;20267;-79
2023/03/16 03:33:21;;;;;;;2.87;1.50;;;-0.90;1.00;;;;;;4995927;28;20679;-79
2023/03/16 03:35:52;;;;;;;2.73;1.60;;;-0.90;1.00;;;;;;4994452;28;20187;-80
2023/03/16 03:38:17;;;;;;;5.10;1.73;;;-0.90;1.00;;;;;;4996114;28;20184;-79
2023/03/16 03:40:43;;;;;;;3.13;1.40;;;-0.80;1.00;;;;;;4994758;28;20187;-79
2023/03/16 03:43:08;;;;;;;4.00;1.50;;;-0.90;1.00;;;;;;4995681;28;20314;-79
2023/03/16 03:45:34;;;;;;;2.40;1.50;;;-1.30;1.00;;;;;;4993626;28;20623;-78
2023/03/16 03:47:59;;;;;;;4.97;1.37;;;-0.90;1.00;;;;;;4993910;28;20560;-80
2023/03/16 03:50:25;;;;;;;4.27;1.50;;;-1.00;1.00;;;;;;4994857;28;21285;-79
2023/03/16 03:52:50;;;;;;;3.43;1.20;;;-0.90;1.00;;;;;;4993498;28;20216;-79
2023/03/16 03:55:16;;;;;;;4.03;1.70;;;-1.00;1.00;;;;;;5010904;28;20188;-79
2023/03/16 03:57:42;;;;;;;3.87;1.50;;;-0.90;1.00;;;;;;4994498;28;20730;-79
2023/03/16 04:00:12;;;;;;;7.37;1.70;;;-0.80;1.00;;;;;;4995743;28;20595;-79
2023/03/16 04:02:38;;;;;;;4.17;1.40;;;-0.80;1.00;;;;;;4997016;28;20207;-79
2023/03/16 04:05:05;;;;;;;3.57;1.40;;;-0.90;1.00;;;;;;4997346;28;20255;-79
2023/03/16 04:07:31;;;;;;;5.30;1.50;;;-0.80;1.00;;;;;;4995018;28;20192;-79
2023/03/16 04:09:57;;;;;;;2.40;1.10;;;-0.80;1.00;;;;;;5003814;28;20206;-79
2023/03/16 04:12:23;;;;;;;2.90;1.20;;;-0.80;1.00;;;;;;4994439;28;20237;-80
2023/03/16 04:14:48;;;;;;;4.43;1.33;;;-0.90;1.00;;;;;;4994881;28;20589;-79
2023/03/16 04:17:14;;;;;;;2.90;1.20;;;-1.00;1.00;;;;;;4996135;28;20198;-78
2023/03/16 04:19:40;;;;;;;7.27;1.67;;;-0.90;1.00;;;;;;5010912;28;20183;-79
2023/03/16 04:22:06;;;;;;;2.63;1.10;;;-1.00;1.00;;;;;;4996882;28;20197;-78
2023/03/16 04:24:33;;;;;;;3.00;1.33;;;-0.90;1.00;;;;;;4995484;28;20212;-79
2023/03/16 04:26:59;;;;;;;3.67;1.17;;;-1.00;1.00;;;;;;4996416;28;20203;-79
2023/03/16 04:29:25;;;;;;;2.03;1.20;;;-1.00;1.00;;;;;;4996976;28;20196;-79
2023/03/16 04:31:52;;;;;;;2.77;1.23;;;-1.10;1.00;;;;;;4995327;28;20746;-80
2023/03/16 04:34:19;;;;;;;2.50;1.07;;;-1.30;1.00;;;;;;4997103;28;20207;-78
2023/03/16 04:36:44;;;;;;;3.90;1.93;;;-1.50;1.00;;;;;;4995724;28;20259;-78
2023/03/16 04:39:10;;;;;;;3.23;1.40;;;-1.60;1.00;;;;;;4994580;28;20662;-78
2023/03/16 04:41:36;;;;;;;2.00;1.27;;;-1.40;1.00;;;;;;4995075;28;21148;-78
2023/03/16 04:44:01;;;;;;;4.37;2.03;;;-1.30;1.00;;;;;;4995390;28;20226;-78
2023/03/16 04:46:28;;;;;;;3.70;1.50;;;-1.10;1.00;;;;;;4996509;28;20199;-78
2023/03/16 04:48:57;;;;;;;3.70;1.27;;;-1.00;1.00;;;;;;4997078;28;20594;-78
2023/03/16 04:51:23;;;;;;;3.63;1.57;;;-1.00;1.00;;;;;;4997443;28;20671;-78
2023/03/16 04:53:48;;;;;;;2.80;1.27;;;-1.10;1.00;;;;;;4994540;28;20207;-78
2023/03/16 04:56:18;;;;;;;3.90;1.20;;;-1.20;1.00;;;;;;4996357;28;20734;-78
2023/03/16 04:58:48;;;;;;;5.80;2.07;;;-1.20;1.00;;;;;;5016052;28;20177;-78
2023/03/16 05:01:15;;;;;;;4.43;1.13;;;-1.00;1.00;;;;;;4998917;28;20650;-78
2023/03/16 05:03:42;;;;;;;3.63;1.50;;;-0.80;1.00;;;;;;4999449;28;20780;-78
2023/03/16 05:06:09;;;;;;;2.83;1.20;;;-0.80;1.00;;;;;;5000708;28;20223;-78
2023/03/16 05:08:35;;;;;;;3.90;1.57;;;-0.80;1.00;;;;;;4998932;28;20199;-79
2023/03/16 05:11:00;;;;;;;2.40;1.10;;;-1.00;1.00;;;;;;4997238;28;20187;-79
2023/03/16 05:13:26;;;;;;;2.27;1.40;;;-1.00;1.00;;;;;;5033649;28;20246;-78
2023/03/16 05:15:55;;;;;;;2.67;1.40;;;-0.90;1.00;;;;;;4999566;28;20238;-78
2023/03/16 05:18:21;;;;;;;6.03;1.60;;;-0.90;1.00;;;;;;4999142;28;20183;-78
2023/03/16 05:20:57;;;;;;;5.27;1.60;;;-0.90;1.00;;;;;;5000674;28;20184;-78
2023/03/16 05:23:22;;;;;;;3.53;1.20;;;-0.80;1.00;;;;;;4998947;28;20219;-78
2023/03/16 05:25:49;;;;;;;4.40;1.20;;;-0.70;1.00;;;;;;4998685;28;20199;-78
2023/03/16 05:28:15;;;;;;;3.60;1.50;;;-0.80;1.00;;;;;;4999010;28;20559;-79
2023/03/16 05:30:43;;;;;;;2.97;1.03;;;-0.70;1.00;;;;;;4998566;28;20188;-78
2023/03/16 05:33:09;;;;;;;1.60;1.00;;;-0.70;1.00;;;;;;4998370;28;20283;-77
2023/03/16 05:35:35;;;;;;;2.67;1.27;;;-0.70;1.00;;;;;;5015784;28;20188;-77
2023/03/16 05:38:02;;;;;;;4.80;1.27;;;-0.70;1.00;;;;;;4999955;28;20188;-78
2023/03/16 05:40:28;;;;;;;3.20;1.27;;;-0.70;1.00;;;;;;5031535;28;20303;-78
2023/03/16 05:42:55;;;;;;;2.77;1.10;;;-0.70;1.00;;;;;;5000242;28;20226;-77
2023/03/16 05:45:21;;;;;;;3.00;1.40;;;-0.70;1.00;;;;;;4997740;28;20184;-79
2023/03/16 05:47:47;;;;;;;2.97;1.33;;;-0.70;1.00;;;;;;4999567;28;20190;-78
2023/03/16 05:50:15;;;;;;;5.73;1.70;;;-0.90;1.00;;;;;;4998428;28;20221;-78
2023/03/16 05:52:41;;;;;;;3.33;1.20;;;-1.10;1.00;;;;;;5000845;28;20200;-79
2023/03/16 05:55:08;;;;;;;3.07;1.20;;;-0.90;1.00;;;;;;4997911;28;20206;-79
2023/03/16 05:57:34;;;;;;;2.67;1.30;;;-0.80;1.00;;;;;;4999618;28;20601;-78
2023/03/16 06:00:10;;;;;;;3.53;1.20;;;-0.70;1.00;;;;;;5000730;28;20180;-78
2023/03/16 06:02:36;;;;;;;2.37;1.57;;;-0.60;1.00;;;;;;4998686;28;20196;-78
2023/03/16 06:05:02;;;;;;;3.20;1.40;;;-0.60;1.00;;;;;;4998425;28;20620;-78
2023/03/16 06:07:27;;;;;;;1.90;1.13;;;-0.70;1.00;;;;;;5000455;28;20187;-79
2023/03/16 06:09:53;;;;;;;3.30;1.33;;;-0.70;1.00;;;;;;4999984;28;20176;-77
2023/03/16 06:12:18;;;;;;;2.90;1.00;;;-0.60;1.00;;;;;;4998696;28;20223;-79
2023/03/16 06:14:44;;;;;;;2.50;1.20;;;-0.70;1.00;;;;;;4996905;28;20247;-78
2023/03/16 06:17:09;;;;;;;4.27;1.07;;;-0.60;1.00;;;;;;4998591;28;20187;-79
2023/03/16 06:19:35;;;;;;;2.50;1.27;;;-0.60;1.00;;;;;;4999093;28;20191;-78
2023/03/16 06:22:00;;;;;;;5.53;1.57;;;-0.50;1.00;;;;;;5001155;28;20274;-78
2023/03/16 06:24:26;;;;;;;2.40;1.20;;;-0.50;1.00;;;;;;4996790;28;20291;-78
2023/03/16 06:26:52;;;;;;;2.80;1.30;;;-0.30;1.00;;;;;;5000587;28;20628;-79
2023/03/16 06:29:17;;;;;;;1.97;1.20;;;-0.20;1.00;;;;;;5000027;28;20191;-78
2023/03/16 06:31:43;;;;;;;3.63;1.47;;;-0.20;1.00;;;;;;5030411;28;20690;-78
2023/03/16 06:34:08;;;;;;;1.53;1.17;;;-0.20;1.00;;;;;;5013029;28;20218;-78
2023/03/16 06:36:34;;;;;;;4.77;1.50;;;0.00;1.00;;;;;;4996873;28;20184;-78
2023/03/16 06:38:59;;;;;;;3.27;1.00;;;-0.10;1.00;;;;;;4999150;28;20556;-78
2023/03/16 06:41:25;;;;;;;3.63;1.40;;;-0.10;1.00;;;;;;4997678;28;20204;-78
2023/03/16 06:43:51;;;;;;;1.90;1.00;;;-0.20;1.00;;;;;;5011324;28;20299;-78
2023/03/16 06:46:16;;;;;;;2.30;1.00;;;-0.20;1.00;;;;;;4996246;28;20275;-78
2023/03/16 06:48:42;;;;;;;3.20;1.20;;;-0.10;1.00;;;;;;4996048;28;20278;-79
2023/03/16 06:51:08;;;;;;;6.27;1.33;;;-0.10;1.00;;;;;;4998187;28;20773;-78
2023/03/16 06:53:33;;;;;;;6.83;1.57;;;0.00;1.00;;;;;;4996472;28;20201;-78
2023/03/16 06:56:00;;;;;;;2.70;1.50;;;0.00;1.00;;;;;;4996478;28;20187;-78
2023/03/16 06:58:25;;;;;;;3.77;1.37;;;0.00;1.00;;;;;;4996671;28;20678;-79
2023/03/16 07:00:52;;;;;;;3.73;1.60;;;0.00;1.00;;;;;;4997335;28;20191;-79
2023/03/16 07:03:18;;;;;;;4.17;1.63;;;0.00;1.00;;;;;;5012110;28;20211;-80
2023/03/16 07:05:44;;;;;;;4.40;1.93;;;0.20;1.00;;;;;;4997684;28;20568;-80
2023/03/16 07:08:09;;;;;;;4.97;1.50;;;0.40;1.00;;;;;;4996406;28;20575;-79
2023/03/16 07:10:35;;;;;;;3.43;1.40;;;0.70;1.00;;;;;;4995843;28;20192;-79
2023/03/16 07:13:00;;;;;;;3.80;1.60;;;0.80;1.00;;;;;;4997077;28;20231;-79
2023/03/16 07:15:26;;;;;;;3.63;1.33;;;1.10;1.00;;;;;;4995894;28;20256;-79
2023/03/16 07:17:51;;;;;;;4.40;1.97;;;1.20;1.00;;;;;;4996562;28;20188;-80
2023/03/16 07:20:18;;;;;;;2.80;1.40;;;1.40;1.00;;;;;;4995818;28;20176;-79
2023/03/16 07:22:43;;;;;;;1.93;1.23;;;1.70;1.00;;;;;;5028735;28;20250;-79
2023/03/16 07:25:10;;;;;;;3.77;1.40;;;1.90;1.00;;;;;;5011546;28;20200;-79
2023/03/16 07:27:36;;;;;;;3.53;1.70;;;2.10;1.00;;;;;;5027950;28;20199;-79
2023/03/16 07:30:04;;;;;;;4.53;1.37;;;2.20;1.00;;;;;;4995304;28;20219;-79
2023/03/16 07:32:31;;;;;;;3.23;1.43;;;2.30;1.00;;;;;;4994891;28;20208;-79
2023/03/16 07:34:57;;;;;;;4.03;1.40;;;2.30;1.00;;;;;;5001313;28;20188;-80
2023/03/16 07:37:24;;;;;;;3.67;1.70;;;2.30;1.00;;;;;;4995351;28;20180;-80
2023/03/16 07:39:50;;;;;;;3.83;1.60;;;2.20;1.00;;;;;;4993764;28;20191;-80
2023/03/16 07:42:16;;;;;;;6.53;1.60;;;2.30;1.00;;;;;;4992013;28;20201;-80
2023/03/16 07:44:42;;;;;;;2.37;1.57;;;2.50;1.00;;;;;;4993848;28;20216;-80
2023/03/16 07:47:11;;;;;;;3.63;1.70;;;2.50;1.00;;;;;;4996737;28;20199;-80
2023/03/16 07:49:37;;;;;;;3.97;1.60;;;2.60;1.00;;;;;;5003890;28;20188;-82
2023/03/16 07:52:02;;;;;;;3.37;1.57;;;2.60;1.00;;;;;;4996814;28;20211;-81
2023/03/16 07:54:28;;;;;;;4.10;2.00;;;2.60;1.00;;;;;;5030196;28;20679;-80
2023/03/16 07:56:54;;;;;;;4.03;1.90;;;2.60;1.00;;;;;;4995294;28;20184;-80
2023/03/16 07:59:20;;;;;;;5.30;2.10;;;2.60;1.00;;;;;;5014078;28;20279;-80
2023/03/16 08:01:45;;;;;;;4.53;1.90;;;2.70;1.00;;;;;;4997584;28;20570;-81
2023/03/16 08:04:11;;;;;;;6.10;2.33;;;2.70;1.00;;;;;;4996315;28;20219;-80
2023/03/16 08:06:37;;;;;;;4.90;1.80;;;2.80;1.00;;;;;;4998546;28;20198;-80
2023/03/16 08:09:03;;;;;;;3.23;1.50;;;3.00;1.00;;;;;;4998338;28;20650;-80
2023/03/16 08:11:28;;;;;;;4.30;1.63;;;3.10;1.00;;;;;;4999030;28;20610;-80
2023/03/16 08:13:55;;;;;;;4.33;1.77;;;3.30;1.00;;;;;;4997614;28;20236;-80
2023/03/16 08:16:25;;;;;;;4.10;1.83;;;3.30;1.00;;;;;;4999321;28;20188;-81
2023/03/16 08:18:51;;;;;;;3.13;1.60;;;4.00;1.00;;;;;;4996405;28;20275;-80
2023/03/16 08:21:19;;;;;;;3.93;1.90;;;3.30;1.00;;;;;;4998268;28;20279;-80
2023/03/16 08:23:48;;;;;;;3.60;1.50;;;3.30;1.00;;;;;;4997330;28;20207;-80
2023/03/16 08:26:21;;;;;;;3.53;1.47;;;3.30;1.00;;;;;;4998028;28;20229;-80
2023/03/16 08:28:50;;;;;;;3.47;1.40;;;3.30;1.00;;;;;;4995570;28;20190;-80
2023/03/16 08:31:18;;;;;;;3.03;1.40;;;3.30;1.00;;;;;;5015560;28;20215;-81
2023/03/16 08:33:45;;;;;;;3.23;1.67;;;3.30;1.00;;;;;;4999661;28;20294;-79
2023/03/16 08:36:14;;;;;;;2.67;1.60;;;3.40;1.00;;;;;;5031808;28;20732;-81
2023/03/16 08:38:41;;;;;;;5.53;1.67;;;3.40;1.00;;;;;;4998476;28;20610;-80
2023/03/16 08:41:07;;;;;;;7.47;1.70;;;3.50;1.00;;;;;;4998882;28;20219;-79
2023/03/16 08:43:34;;;;;;;5.20;1.90;;;3.60;1.00;;;;;;4998323;28;20734;-80
2023/03/16 08:46:00;;;;;;;5.07;1.53;;;3.60;1.00;;;;;;5000514;28;20191;-80
2023/03/16 08:48:27;;;;;;;3.07;1.67;;;3.60;1.00;;;;;;4995690;28;20208;-80
2023/03/16 08:50:54;;;;;;;4.83;1.80;;;3.70;1.00;;;;;;4998069;28;20270;-79
2023/03/16 08:53:20;;;;;;;4.73;1.50;;;3.80;1.00;;;;;;4994840;28;20294;-84
2023/03/16 08:55:46;;;;;;;4.53;1.70;;;3.80;1.00;;;;;;5011774;28;20195;-83
2023/03/16 08:58:12;;;;;;;6.67;2.00;;;3.90;1.00;;;;;;4995810;28;20218;-83
2023/03/16 09:00:38;;;;;;;2.70;1.43;;;4.00;1.00;;;;;;5015098;28;20539;-83
2023/03/16 09:03:05;;;;;;;9.27;2.67;;;4.10;1.00;;;;;;4999263;28;20759;-83
2023/03/16 09:05:31;;;;;;;6.33;2.00;;;4.30;1.00;;;;;;5013515;28;20250;-84
2023/03/16 09:07:57;;;;;;;4.23;1.60;;;4.30;1.00;;;;;;4999417;28;20284;-85
2023/03/16 09:10:24;;;;;;;6.07;1.67;;;4.50;1.00;;;;;;4998307;28;20275;-84
2023/03/16 09:12:51;;;;;;;3.63;1.27;;;4.60;1.00;;;;;;4997753;28;20226;-83
2023/03/16 09:15:18;;;;;;;2.70;1.27;;;4.60;1.00;;;;;;5006644;28;20190;-85
2023/03/16 09:17:44;;;;;;;4.70;1.60;;;4.80;1.00;;;;;;4995764;28;20199;-82
2023/03/16 09:20:11;;;;;;;3.30;1.40;;;4.90;1.00;;;;;;4997769;28;20584;-84
2023/03/16 09:22:37;;;;;;;3.13;1.23;;;5.10;1.00;;;;;;4996876;28;20192;-85
2023/03/16 09:25:07;;;;;;;2.83;1.10;;;5.20;1.00;;;;;;5031172;28;20188;-82
2023/03/16 09:27:35;;;;;;;3.47;1.27;;;5.40;1.00;;;;;;4997161;28;20199;-81
2023/03/16 09:30:02;;;;;;;2.87;1.10;;;5.50;1.00;;;;;;4997930;28;20735;-83
2023/03/16 09:32:28;;;;;;;3.83;1.10;;;5.70;1.00;;;;;;5005082;28;20239;-85
2023/03/16 09:34:54;;;;;;;5.77;1.20;;;5.90;1.00;;;;;;5029918;28;20191;-84
2023/03/16 09:37:21;;;;;;;3.30;1.30;;;6.10;1.00;;;;;;4998592;28;20187;-86
2023/03/16 09:39:47;;;;;;;4.37;1.10;;;6.20;1.00;;;;;;4996148;28;20188;-85
2023/03/16 09:42:22;;;;;;;3.83;1.50;;;6.40;1.00;;;;;;5014592;28;20192;-84
2023/03/16 09:44:51;;;;;;;1.73;0.80;;;6.50;1.00;;;;;;4997426;28;20231;-84
2023/03/16 09:47:23;;;;;;;3.83;1.00;;;6.50;1.00;;;;;;5003748;28;20195;-84
2023/03/16 09:49:51;;;;;;;2.50;0.73;;;6.30;1.00;;;;;;4997724;28;20188;-84
2023/03/16 09:52:47;;;;;;;6.10;1.20;;;6.40;1.00;;;;;;4998687;28;20293;-83
2023/03/16 09:55:24;;;;;;;2.80;0.80;;;6.40;1.00;;;;;;4972778;28;20200;-81
2023/03/16 09:57:51;;;;;;;2.27;0.93;;;6.50;1.00;;;;;;5012438;28;20184;-84
2023/03/16 10:00:26;;;;;;;2.77;1.00;;;6.60;1.00;;;;;;4998812;28;20180;-83
2023/03/16 10:03:17;;;;;;;1.83;0.90;;;6.60;1.00;;;;;;4997258;28;20221;-85
2023/03/16 10:05:46;;;;;;;2.20;0.70;;;6.50;1.00;;;;;;4997492;28;20217;-84
2023/03/16 10:08:24;;;;;;;3.93;0.90;;;6.80;1.00;;;;;;4997926;28;20235;-84
2023/03/16 10:11:16;;;;;;;3.87;1.00;;;6.90;1.00;;;;;;4997366;28;20251;-83
2023/03/16 10:13:57;;;;;;;1.87;0.70;;;6.80;1.00;;;;;;4996025;28;20224;-83
2023/03/16 10:16:38;;;;;;;2.80;0.70;;;6.90;1.00;;;;;;5004539;28;20180;-82
2023/03/16 10:19:10;;;;;;;2.43;0.80;;;7.10;1.00;;;;;;5004743;28;20662;-85
2023/03/16 10:21:39;;;;;;;1.33;0.60;;;7.00;1.00;;;;;;4999031;28;20184;-83
2023/03/16 10:24:20;;;;;;;2.43;1.00;;;7.00;1.00;;;;;;5029683;28;20204;-82
2023/03/16 10:26:54;;;;;;;3.77;0.87;;;7.00;1.00;;;;;;4996071;28;20218;-84
2023/03/16 10:29:19;;;;;;;2.33;0.70;;;7.10;1.00;;;;;;4994437;28;20191;-84
2023/03/16 10:31:45;;;;;;;2.70;1.23;;;7.10;1.00;;;;;;5011782;28;20729;-85
2023/03/16 10:34:11;;;;;;;2.53;0.80;;;7.30;1.00;;;;;;4997351;28;20200;-82
2023/03/16 10:36:42;;;;;;;2.23;0.83;;;7.30;1.00;;;;;;4998358;28;20177;-82
2023/03/16 10:39:12;;;;;;;1.70;0.70;;;7.40;1.00;;;;;;4996018;28;20180;-83
2023/03/16 10:41:41;;;;;;;3.03;0.90;;;7.50;1.00;;;;;;4994707;28;20194;-83
2023/03/16 10:44:15;;;;;;;2.83;0.60;;;7.60;1.00;;;;;;4997159;28;20299;-84
2023/03/16 10:46:59;;;;;;;3.30;0.83;;;7.60;1.00;;;;;;4996492;28;20180;-84
2023/03/16 10:49:34;;;;;;;3.03;0.80;;;7.50;1.00;;;;;;4995567;28;20184;-84
2023/03/16 10:52:12;;;;;;;2.47;0.67;;;7.40;1.00;;;;;;4998688;28;20295;-84
2023/03/16 10:54:39;;;;;;;3.47;0.57;;;7.50;1.00;;;;;;4994637;28;20271;-85
2023/03/16 10:57:24;;;;;;;2.50;0.60;;;7.50;1.00;;;;;;4996967;28;20185;-82
2023/03/16 10:59:51;;;;;;;8.07;0.77;;;7.50;1.00;;;;;;4995324;28;20234;-84
2023/03/16 11:02:22;;;;;;;2.10;0.50;;;7.60;1.00;;;;;;4994648;28;20198;-86
2023/03/16 11:04:48;;;;;;;2.27;0.80;;;8.30;1.00;;;;;;4995074;28;20259;-81
2023/03/16 11:07:51;;;;;;;3.37;1.30;;;7.60;1.00;;;;;;4996377;28;20212;-87
2023/03/16 11:10:31;;;;;;;1.63;0.53;;;7.60;1.00;;;;;;4999303;28;20191;-83
2023/03/16 11:13:13;;;;;;;3.60;0.97;;;7.70;1.00;;;;;;5011063;28;20227;-85
2023/03/16 11:15:57;;;;;;;0.73;0.50;;;7.80;1.00;;;;;;4995495;28;20179;-85
2023/03/16 11:18:52;;;;;;;8.23;1.10;;;7.60;1.00;;;;;;4995960;28;20561;-84
2023/03/16 11:21:39;;;;;;;1.87;0.63;;;7.70;1.00;;;;;;4995586;28;20237;-83
2023/03/16 11:24:19;;;;;;;2.50;0.80;;;7.70;1.00;;;;;;5028077;28;20203;-85
2023/03/16 11:26:51;;;;;;;1.90;0.63;;;7.70;1.00;;;;;;4997118;28;20188;-83
2023/03/16 11:29:24;;;;;;;2.87;0.60;;;7.60;1.00;;;;;;4996170;28;20661;-83
2023/03/16 11:31:55;;;;;;;1.97;0.60;;;7.80;1.00;;;;;;4995485;28;20204;-81
2023/03/16 11:34:29;;;;;;;0.70;0.50;;;8.20;1.00;;;;;;4993653;28;20246;-82
2023/03/16 11:37:07;;;;;;;1.30;0.60;;;7.80;1.00;;;;;;4993775;28;20174;-84
2023/03/16 11:39:43;;;;;;;2.03;0.70;;;8.00;1.00;;;;;;4992906;28;20564;-83
2023/03/16 11:42:27;;;;;;;1.17;0.50;;;8.00;1.00;;;;;;4993864;28;20912;-82
2023/03/16 11:45:28;;;;;;;2.10;0.80;;;8.00;1.00;;;;;;4993616;28;20199;-83
2023/03/16 11:48:02;;;;;;;1.43;0.70;;;8.10;1.00;;;;;;4992602;28;20193;-84
2023/03/16 11:50:52;;;;;;;1.70;0.60;;;8.10;1.00;;;;;;4995849;28;20203;-85
2023/03/16 11:53:35;;;;;;;2.40;0.90;;;8.10;1.00;;;;;;4996789;28;20212;-82
2023/03/16 11:56:19;;;;;;;1.37;0.70;;;8.20;1.00;;;;;;4996494;28;20192;-83
2023/03/16 11:59:03;;;;;;;2.37;0.60;;;8.30;1.00;;;;;;4995217;28;20224;-85
2023/03/16 12:01:38;;;;;;;2.43;0.60;;;8.30;1.00;;;;;;5002626;28;20317;-83
2023/03/16 12:04:19;;;;;;;1.40;0.70;;;8.30;1.00;;;;;;5001768;28;21025;-83
2023/03/16 12:07:08;;;;;;;3.13;0.97;;;8.40;1.00;;;;;;4995632;28;21220;-83
2023/03/16 12:10:02;;;;;;;2.67;0.70;;;8.30;1.00;;;;;;4996950;28;21085;-82
2023/03/16 12:13:09;;;;;;;2.93;0.50;;;8.50;1.00;;;;;;4978621;28;20629;-84
2023/03/16 12:15:47;;;;;;;1.97;0.70;;;8.60;1.00;;;;;;4994384;28;20613;-84
2023/03/16 12:18:38;;;;;;;1.63;0.70;;;8.70;1.00;;;;;;4996089;28;20655;-84
2023/03/16 12:21:12;;;;;;;1.93;0.60;;;8.70;1.00;;;;;;5011428;28;20187;-82
2023/03/16 12:23:40;;;;;;;1.70;0.70;;;8.60;1.00;;;;;;4995523;28;20294;-83
2023/03/16 12:26:07;;;;;;;1.63;0.70;;;8.00;1.00;;;;;;5011630;28;20180;-85
2023/03/16 12:28:35;;;;;;;2.50;0.60;;;8.50;1.00;;;;;;4996240;28;21111;-80
2023/03/16 12:31:34;;;;;;;1.83;0.67;;;8.50;1.00;;;;;;4993380;28;20184;-79
2023/03/16 12:34:31;;;;;;;2.47;0.87;;;8.50;1.00;;;;;;4998393;28;20223;-79
2023/03/16 12:37:11;;;;;;;1.67;0.70;;;8.60;1.00;;;;;;5001954;28;20207;-81
2023/03/16 12:39:50;;;;;;;1.37;0.80;;;8.60;1.00;;;;;;4994920;28;20679;-81
2023/03/16 12:42:49;;;;;;;3.10;1.00;;;8.80;1.00;;;;;;4994303;28;20183;-79
2023/03/16 12:45:21;;;;;;;2.53;0.93;;;8.60;1.00;;;;;;4996043;28;20245;-78
2023/03/16 12:48:03;;;;;;;1.00;0.77;;;8.60;1.00;;;;;;4997381;28;20587;-78
2023/03/16 12:50:29;;;;;;;3.57;0.90;;;8.70;1.00;;;;;;4992746;28;20211;-79
2023/03/16 12:52:55;;;;;;;2.17;0.83;;;8.70;1.00;;;;;;4995663;28;20246;-78
2023/03/16 12:55:38;;;;;;;1.43;0.87;;;9.50;1.00;;;;;;4997813;28;20295;-79
2023/03/16 12:58:07;;;;;;;1.93;0.90;;;9.00;1.00;;;;;;4995204;28;20246;-78
2023/03/16 13:00:36;;;;;;;1.30;0.60;;;9.00;1.00;;;;;;4997256;28;20196;-79
2023/03/16 13:03:04;;;;;;;1.13;0.80;;;9.00;1.00;;;;;;4994891;28;21118;-79
2023/03/16 13:05:34;;;;;;;2.00;0.80;;;8.90;1.00;;;;;;4995919;28;20667;-79
2023/03/16 13:21:12;;;;;;;1.30;0.60;;;9.20;1.00;;;;;;5882222;23;20228;-80
2023/03/16 13:23:54;;;;;;;2.07;0.80;;;9.20;1.00;;;;;;5046317;28;20221;-78
2023/03/16 13:26:40;;;;;;;1.77;0.90;;;9.40;1.00;;;;;;5038896;28;20193;-78
2023/03/16 13:29:29;;;;;;;1.97;0.90;;;9.60;1.00;;;;;;5041191;28;20185;-81